Time;durP1;ratioP1;P1;durP2;ratioP2;P2;SDS_P1;SDS_P2;PMS_P1;PMS_P2;Temp;Humidity;BMP_temperature;BMP_pressure;BME280_temperature;BME280_humidity;BME280_pressure;Samples;Min_cycle;Max_cycle;Signal;HPM_P1;HPM_P2
2021/12/11 00:01:51;;;;;;;43.67;25.35;;;1.60;97.60;;;;;;5036738;28;20391;-74
2021/12/11 00:04:23;;;;;;;47.17;25.65;;;1.50;96.30;;;;;;5040566;28;20398;-71
2021/12/11 00:06:52;;;;;;;48.55;24.38;;;1.50;97.10;;;;;;5039081;28;20386;-72
2021/12/11 00:09:37;;;;;;;46.50;24.77;;;1.50;98.60;;;;;;5032010;28;20399;-74
2021/12/11 00:12:33;;;;;;;46.13;24.77;;;1.40;96.60;;;;;;5031581;28;20726;-73
2021/12/11 00:15:32;;;;;;;43.28;24.00;;;1.20;96.80;;;;;;5031169;28;20395;-73
2021/12/11 00:18:00;;;;;;;40.27;24.93;;;1.10;98.20;;;;;;5022819;28;20421;-73
2021/12/11 00:20:30;;;;;;;45.03;25.58;;;1.00;99.80;;;;;;5031192;28;20418;-73
2021/12/11 00:22:56;;;;;;;46.83;26.10;;;1.00;99.90;;;;;;5026157;28;20409;-73
2021/12/11 00:25:22;;;;;;;49.65;26.50;;;0.90;99.90;;;;;;5020499;28;20903;-73
2021/12/11 00:27:51;;;;;;;52.63;26.97;;;0.80;99.90;;;;;;5031118;28;20498;-73
2021/12/11 00:30:25;;;;;;;48.90;26.25;;;1.00;99.90;;;;;;5031256;28;20749;-73
2021/12/11 00:33:01;;;;;;;48.05;26.10;;;1.00;99.90;;;;;;5030009;28;20391;-73
2021/12/11 00:35:28;;;;;;;48.23;26.50;;;0.80;99.90;;;;;;5027861;28;20821;-73
2021/12/11 00:38:01;;;;;;;55.03;27.85;;;0.90;99.90;;;;;;5024437;28;20399;-74
2021/12/11 00:40:27;;;;;;;62.00;27.30;;;0.80;99.90;;;;;;5030234;28;20379;-73
2021/12/11 00:42:59;;;;;;;52.58;25.35;;;0.80;99.90;;;;;;5029849;28;20382;-73
2021/12/11 00:45:31;;;;;;;44.70;26.23;;;1.00;99.90;;;;;;5028553;28;20398;-72
2021/12/11 00:48:00;;;;;;;48.83;25.77;;;1.00;99.90;;;;;;5020362;28;20470;-73
2021/12/11 00:50:29;;;;;;;46.97;24.80;;;0.90;99.90;;;;;;5010524;28;20413;-74
2021/12/11 00:53:07;;;;;;;53.95;27.58;;;1.00;99.90;;;;;;5024212;28;20391;-73
2021/12/11 00:55:42;;;;;;;63.55;27.33;;;0.80;99.90;;;;;;5013752;28;20396;-72
2021/12/11 00:58:11;;;;;;;53.25;28.50;;;0.90;99.90;;;;;;5015981;28;20456;-73
2021/12/11 01:00:57;;;;;;;56.28;28.00;;;1.00;99.90;;;;;;5027062;28;20399;-72
2021/12/11 01:03:53;;;;;;;54.53;27.77;;;1.00;99.90;;;;;;5021537;28;20806;-73
2021/12/11 01:06:21;;;;;;;55.78;27.35;;;1.10;99.90;;;;;;5009462;28;20389;-73
2021/12/11 01:08:58;;;;;;;50.42;26.30;;;1.30;99.90;;;;;;5009179;28;20828;-71
2021/12/11 01:14:58;;;;;;;49.15;25.33;;;2.10;99.90;;;;;;5034781;28;20389;-72
2021/12/11 01:17:47;;;;;;;42.78;25.90;;;2.20;97.80;;;;;;5015334;28;20880;-73
2021/12/11 01:20:25;;;;;;;44.75;25.27;;;2.20;93.10;;;;;;5015170;28;20867;-73
2021/12/11 01:22:52;;;;;;;47.03;26.13;;;2.20;93.40;;;;;;5019030;28;20398;-73
2021/12/11 01:25:20;;;;;;;49.10;26.83;;;2.10;92.40;;;;;;5034734;28;20814;-73
2021/12/11 01:27:50;;;;;;;44.78;25.73;;;1.90;96.40;;;;;;5035864;28;20402;-72
2021/12/11 01:30:22;;;;;;;54.72;26.17;;;1.90;96.60;;;;;;5035318;28;20406;-73
2021/12/11 01:32:49;;;;;;;52.85;27.85;;;1.80;99.80;;;;;;5034131;28;20398;-72
2021/12/11 01:35:16;;;;;;;45.63;25.75;;;1.60;99.80;;;;;;5034602;28;20465;-73
2021/12/11 01:37:43;;;;;;;45.60;26.05;;;1.40;99.90;;;;;;5034237;28;20390;-72
2021/12/11 01:40:12;;;;;;;53.50;27.55;;;1.40;99.90;;;;;;5034158;28;20452;-72
2021/12/11 01:42:39;;;;;;;47.47;25.88;;;1.50;99.90;;;;;;5033788;28;20474;-71
2021/12/11 01:45:09;;;;;;;50.42;26.55;;;1.40;99.90;;;;;;5033953;28;20730;-73
2021/12/11 01:47:37;;;;;;;56.83;28.50;;;1.30;99.90;;;;;;5026066;28;20487;-73
2021/12/11 01:50:20;;;;;;;50.90;27.00;;;1.10;99.90;;;;;;5030812;28;20399;-72
2021/12/11 01:52:58;;;;;;;59.50;28.05;;;1.10;99.90;;;;;;5032703;28;20796;-72
2021/12/11 01:55:29;;;;;;;55.92;28.27;;;1.10;99.90;;;;;;5033888;28;20383;-72
2021/12/11 01:57:56;;;;;;;54.65;29.23;;;1.10;99.90;;;;;;5034197;28;20456;-72
2021/12/11 02:00:34;;;;;;;62.47;28.90;;;1.20;99.90;;;;;;5026002;28;20408;-72
2021/12/11 02:03:06;;;;;;;55.55;27.63;;;1.70;99.90;;;;;;5017654;28;20406;-72
2021/12/11 02:05:34;;;;;;;48.88;27.27;;;2.00;99.90;;;;;;5032691;28;20896;-71
2021/12/11 02:08:05;;;;;;;57.30;28.58;;;2.10;99.90;;;;;;5030312;28;20410;-71
2021/12/11 02:10:35;;;;;;;58.30;30.10;;;2.10;99.90;;;;;;5033219;28;20414;-71
2021/12/11 02:13:05;;;;;;;51.85;28.88;;;2.10;99.90;;;;;;5033769;28;20433;-71
2021/12/11 02:15:37;;;;;;;53.20;28.15;;;2.20;99.90;;;;;;5028419;28;20411;-71
2021/12/11 02:18:12;;;;;;;48.55;27.90;;;2.20;99.90;;;;;;5014229;28;20468;-71
2021/12/11 02:20:54;;;;;;;49.83;27.67;;;2.30;99.90;;;;;;5020129;28;20418;-71
2021/12/11 02:23:21;;;;;;;57.05;28.08;;;2.20;99.90;;;;;;5032026;28;20397;-71
2021/12/11 02:25:50;;;;;;;51.95;28.98;;;2.10;99.90;;;;;;5034607;28;20398;-71
2021/12/11 02:28:19;;;;;;;53.25;27.02;;;2.10;99.90;;;;;;5034798;28;20462;-71
2021/12/11 02:31:00;;;;;;;50.72;26.55;;;2.20;99.90;;;;;;5033718;28;20396;-71
2021/12/11 02:33:35;;;;;;;61.42;27.40;;;2.30;99.90;;;;;;5033679;28;20478;-71
2021/12/11 02:36:15;;;;;;;48.17;27.02;;;2.30;99.90;;;;;;5034590;28;20394;-72
2021/12/11 02:39:11;;;;;;;51.72;26.48;;;2.30;99.90;;;;;;5034303;28;20383;-71
2021/12/11 02:41:51;;;;;;;55.28;27.02;;;2.30;99.90;;;;;;5034675;28;20472;-72
2021/12/11 02:44:25;;;;;;;52.17;27.20;;;2.50;99.90;;;;;;5035036;28;20494;-73
2021/12/11 02:47:13;;;;;;;58.10;27.05;;;2.70;99.90;;;;;;5028892;28;20435;-72
2021/12/11 02:49:52;;;;;;;53.78;27.38;;;2.50;99.90;;;;;;5030193;28;20406;-72
2021/12/11 02:52:24;;;;;;;57.28;27.77;;;2.60;99.90;;;;;;5042171;28;20399;-72
2021/12/11 02:55:02;;;;;;;55.85;27.42;;;2.50;99.90;;;;;;5037331;28;20383;-71
2021/12/11 02:57:37;;;;;;;61.67;29.50;;;2.60;99.90;;;;;;5032877;28;20401;-71
2021/12/11 03:00:15;;;;;;;56.70;29.55;;;2.70;99.90;;;;;;5026856;28;20405;-72
2021/12/11 03:02:47;;;;;;;53.03;28.38;;;2.70;99.90;;;;;;5014382;28;20397;-72
2021/12/11 03:05:16;;;;;;;59.08;29.25;;;2.60;99.90;;;;;;5032923;28;20391;-72
2021/12/11 03:07:49;;;;;;;50.25;28.17;;;2.60;99.90;;;;;;5033196;28;20787;-72
2021/12/11 03:10:17;;;;;;;59.08;29.70;;;2.60;99.90;;;;;;5034477;28;20411;-72
2021/12/11 03:12:44;;;;;;;63.80;29.58;;;2.50;99.90;;;;;;5033855;28;20417;-72
2021/12/11 03:15:11;;;;;;;63.40;29.08;;;2.50;99.90;;;;;;5031899;28;20798;-71
2021/12/11 03:17:37;;;;;;;71.43;30.23;;;2.50;99.90;;;;;;5022622;28;20556;-71
2021/12/11 03:20:06;;;;;;;65.25;27.70;;;2.60;99.90;;;;;;5033156;28;20474;-72
2021/12/11 03:22:34;;;;;;;58.90;27.60;;;2.80;99.90;;;;;;5031162;28;20586;-72
2021/12/11 03:25:03;;;;;;;61.60;28.25;;;2.70;99.90;;;;;;5013621;28;20889;-72
2021/12/11 03:27:29;;;;;;;60.50;29.02;;;2.60;99.90;;;;;;5011556;28;20393;-72
2021/12/11 03:29:55;;;;;;;71.50;29.40;;;2.70;99.90;;;;;;5023685;28;20407;-72
2021/12/11 03:32:21;;;;;;;56.42;29.08;;;2.90;99.90;;;;;;5031528;28;20833;-72
2021/12/11 03:34:49;;;;;;;59.80;30.00;;;2.70;99.80;;;;;;5032063;28;20382;-71
2021/12/11 03:37:20;;;;;;;62.20;28.60;;;2.70;99.90;;;;;;5032269;28;20474;-72
2021/12/11 03:39:48;;;;;;;56.33;30.10;;;2.70;99.90;;;;;;5032498;28;20387;-72
2021/12/11 03:42:21;;;;;;;61.55;27.63;;;2.70;99.90;;;;;;5031907;28;20466;-71
2021/12/11 03:44:47;;;;;;;60.03;28.20;;;2.80;99.90;;;;;;5031913;28;20394;-72
2021/12/11 03:47:24;;;;;;;67.28;26.60;;;2.70;99.80;;;;;;5021882;28;20399;-71
2021/12/11 03:49:50;;;;;;;51.15;27.13;;;2.80;99.90;;;;;;5022684;28;20782;-71
2021/12/11 03:52:16;;;;;;;54.95;27.85;;;2.90;97.10;;;;;;5024529;28;20447;-71
2021/12/11 03:54:44;;;;;;;57.72;27.65;;;2.70;98.30;;;;;;5011722;28;20389;-71
2021/12/11 03:57:15;;;;;;;82.30;27.80;;;2.70;99.70;;;;;;5011947;28;20381;-71
2021/12/11 03:59:42;;;;;;;68.63;27.98;;;2.70;99.90;;;;;;5020055;28;20468;-72
2021/12/11 04:02:11;;;;;;;65.43;28.60;;;2.80;99.90;;;;;;5031601;28;20824;-71
2021/12/11 04:04:46;;;;;;;61.35;29.65;;;2.70;99.90;;;;;;5014516;28;20819;-72
2021/12/11 04:07:17;;;;;;;62.42;30.17;;;2.50;99.90;;;;;;5012858;28;20429;-72
2021/12/11 04:09:44;;;;;;;68.15;31.40;;;2.60;99.90;;;;;;5012079;28;20508;-71
2021/12/11 04:12:11;;;;;;;64.50;32.17;;;2.50;99.90;;;;;;5030403;28;20478;-72
2021/12/11 04:14:42;;;;;;;74.03;32.92;;;2.40;99.90;;;;;;5032148;28;20394;-73
2021/12/11 04:17:10;;;;;;;59.92;29.23;;;2.40;99.90;;;;;;5013903;28;20424;-72
2021/12/11 04:19:37;;;;;;;58.27;30.00;;;2.70;99.90;;;;;;5011183;28;20400;-72
2021/12/11 04:22:04;;;;;;;56.45;29.60;;;2.60;99.90;;;;;;5028340;28;20485;-72
2021/12/11 04:24:32;;;;;;;60.67;29.33;;;2.80;99.90;;;;;;5014134;28;20482;-72
2021/12/11 04:27:00;;;;;;;55.25;29.80;;;2.70;99.80;;;;;;5014250;28;20380;-73
2021/12/11 04:29:26;;;;;;;58.88;29.38;;;2.70;98.50;;;;;;5031970;28;20919;-71
2021/12/11 04:31:52;;;;;;;59.90;30.25;;;2.80;99.00;;;;;;5030503;28;20477;-71
2021/12/11 04:34:21;;;;;;;59.92;30.48;;;2.90;95.20;;;;;;5031286;28;20518;-72
2021/12/11 04:37:00;;;;;;;54.97;29.23;;;2.90;94.20;;;;;;5031521;28;20467;-71
2021/12/11 04:39:29;;;;;;;58.97;30.00;;;2.90;93.30;;;;;;5029755;28;20398;-71
2021/12/11 04:42:04;;;;;;;54.17;28.05;;;3.10;89.70;;;;;;5029686;28;20896;-70
2021/12/11 04:44:36;;;;;;;53.10;27.75;;;3.10;87.40;;;;;;5031049;28;20997;-70
2021/12/11 04:47:16;;;;;;;59.77;29.40;;;2.90;88.70;;;;;;5026809;28;20383;-71
2021/12/11 04:49:52;;;;;;;56.67;30.00;;;2.80;90.00;;;;;;5025153;28;20410;-71
2021/12/11 04:52:33;;;;;;;58.97;27.95;;;2.90;92.20;;;;;;5024123;28;20446;-71
2021/12/11 05:01:09;;;;;;;63.22;31.77;;;2.60;96.30;;;;;;5018952;28;20410;-72
2021/12/11 05:06:14;;;;;;;66.45;33.70;;;2.60;99.90;;;;;;5031023;28;20522;-72
2021/12/11 05:11:35;;;;;;;64.30;32.80;;;2.70;95.50;;;;;;5030541;28;20756;-71
2021/12/11 05:14:04;;;;;;;66.78;33.85;;;2.80;96.40;;;;;;5030927;28;20448;-72
2021/12/11 05:16:29;;;;;;;71.70;34.03;;;2.60;95.70;;;;;;5017642;28;20408;-72
2021/12/11 05:18:55;;;;;;;71.17;34.47;;;2.80;96.50;;;;;;5011145;28;20864;-72
2021/12/11 05:21:21;;;;;;;71.47;34.88;;;2.90;90.90;;;;;;5018319;28;20474;-72
2021/12/11 05:23:49;;;;;;;64.32;32.90;;;3.20;86.90;;;;;;5018504;28;20399;-72
2021/12/11 05:26:14;;;;;;;67.57;32.03;;;3.10;85.00;;;;;;5011585;28;20389;-73
2021/12/11 05:28:40;;;;;;;64.78;32.00;;;3.00;88.90;;;;;;5010850;28;20412;-71
2021/12/11 05:31:08;;;;;;;68.93;32.65;;;3.10;87.20;;;;;;5012587;28;20857;-71
2021/12/11 05:33:34;;;;;;;66.18;33.78;;;3.10;83.70;;;;;;5030632;28;20387;-71
2021/12/11 05:36:01;;;;;;;72.55;35.28;;;3.00;85.30;;;;;;5032936;28;20406;-71
2021/12/11 05:38:27;;;;;;;77.43;35.73;;;2.90;90.20;;;;;;5038254;28;20395;-71
2021/12/11 05:41:00;;;;;;;73.03;33.95;;;3.10;89.50;;;;;;5038090;28;20391;-71
2021/12/11 05:43:27;;;;;;;75.43;36.60;;;3.20;84.80;;;;;;5013018;28;20385;-71
2021/12/11 05:45:52;;;;;;;78.65;35.95;;;3.30;84.40;;;;;;5014097;28;20395;-71
2021/12/11 05:48:18;;;;;;;70.60;33.65;;;3.40;82.50;;;;;;5020839;28;20421;-71
2021/12/11 05:50:48;;;;;;;72.50;33.42;;;3.30;84.20;;;;;;5030163;28;20482;-71
2021/12/11 05:53:16;;;;;;;78.13;35.40;;;3.30;80.80;;;;;;5015119;28;20448;-71
2021/12/11 05:55:42;;;;;;;81.20;36.70;;;3.20;85.70;;;;;;5010994;28;20471;-71
2021/12/11 05:58:13;;;;;;;81.65;36.65;;;3.10;85.50;;;;;;5012382;28;20480;-71
2021/12/11 06:00:44;;;;;;;73.20;35.75;;;3.30;86.80;;;;;;5025469;28;20383;-71
2021/12/11 06:03:10;;;;;;;75.72;36.05;;;3.30;82.90;;;;;;5033351;28;20391;-72
2021/12/11 06:05:36;;;;;;;81.45;37.13;;;3.30;83.20;;;;;;5033623;28;20395;-72
2021/12/11 06:08:03;;;;;;;83.70;37.83;;;3.10;86.00;;;;;;5033806;28;20748;-72
2021/12/11 06:10:29;;;;;;;84.88;37.38;;;3.10;90.80;;;;;;5033653;28;20481;-71
2021/12/11 06:12:58;;;;;;;90.10;39.17;;;3.00;91.00;;;;;;5033639;28;20415;-72
2021/12/11 06:15:23;;;;;;;89.20;40.67;;;3.00;92.00;;;;;;5031908;28;20407;-72
2021/12/11 06:17:49;;;;;;;95.05;40.63;;;3.00;92.80;;;;;;5033442;28;20453;-72
2021/12/11 06:20:23;;;;;;;99.22;42.47;;;3.00;94.00;;;;;;5033428;28;20409;-73
2021/12/11 06:22:49;;;;;;;96.47;41.28;;;2.90;95.20;;;;;;5028225;28;20415;-73
2021/12/11 06:25:25;;;;;;;102.72;41.78;;;3.00;96.50;;;;;;5011939;28;20443;-74
2021/12/11 06:27:51;;;;;;;100.95;39.95;;;3.20;94.70;;;;;;5013245;28;20483;-73
2021/12/11 06:30:18;;;;;;;92.23;41.10;;;3.50;89.30;;;;;;5011815;28;20491;-73
2021/12/11 06:32:45;;;;;;;97.25;38.55;;;3.40;86.50;;;;;;5029531;28;20552;-73
2021/12/11 06:35:16;;;;;;;92.82;41.53;;;3.40;85.30;;;;;;5033155;28;20398;-73
2021/12/11 06:37:42;;;;;;;92.00;40.08;;;3.40;86.70;;;;;;5033096;28;20380;-73
2021/12/11 06:40:09;;;;;;;88.57;38.27;;;3.50;85.80;;;;;;5033598;28;20497;-73
2021/12/11 06:42:35;;;;;;;105.88;40.05;;;3.40;85.60;;;;;;5032523;28;20441;-73
2021/12/11 06:45:01;;;;;;;97.85;41.08;;;3.40;87.20;;;;;;5033194;28;20391;-73
2021/12/11 06:47:26;;;;;;;102.32;41.88;;;3.40;85.10;;;;;;5029917;28;20391;-73
2021/12/11 06:49:52;;;;;;;90.55;41.30;;;3.60;86.80;;;;;;5034149;28;20407;-73
2021/12/11 06:52:21;;;;;;;98.10;41.63;;;3.50;82.70;;;;;;5031450;28;20744;-74
2021/12/11 06:54:47;;;;;;;100.57;42.17;;;3.50;85.20;;;;;;5034292;28;20391;-74
2021/12/11 06:57:13;;;;;;;94.93;42.00;;;3.50;86.30;;;;;;5033860;28;20445;-74
2021/12/11 06:59:39;;;;;;;95.68;39.67;;;3.70;83.80;;;;;;5032463;28;20407;-73
2021/12/11 07:02:05;;;;;;;93.20;40.70;;;4.10;79.00;;;;;;5032226;28;20441;-73
2021/12/11 07:04:31;;;;;;;101.97;42.15;;;4.00;74.00;;;;;;5016144;28;20476;-73
2021/12/11 07:06:58;;;;;;;101.00;41.92;;;3.90;75.70;;;;;;5013180;28;20393;-73
2021/12/11 07:09:25;;;;;;;109.57;43.25;;;3.90;77.00;;;;;;5012070;28;20391;-73
2021/12/11 07:11:53;;;;;;;114.78;44.17;;;3.80;76.30;;;;;;5026697;28;20461;-73
2021/12/11 07:14:21;;;;;;;108.78;43.03;;;3.90;77.00;;;;;;5032632;28;20830;-73
2021/12/11 07:16:48;;;;;;;120.38;46.10;;;3.90;76.50;;;;;;5017685;28;20924;-74
2021/12/11 07:19:14;;;;;;;116.90;45.45;;;3.90;79.70;;;;;;5013105;28;20433;-73
2021/12/11 07:21:41;;;;;;;113.50;44.07;;;3.90;77.50;;;;;;5024269;28;20915;-73
2021/12/11 07:24:09;;;;;;;113.78;43.53;;;3.80;79.30;;;;;;5018435;28;20416;-73
2021/12/11 07:26:35;;;;;;;111.90;45.42;;;3.80;80.40;;;;;;5012807;28;20393;-74
2021/12/11 07:29:08;;;;;;;122.10;46.03;;;3.80;81.50;;;;;;5024601;28;20410;-72
2021/12/11 07:31:34;;;;;;;115.15;43.65;;;3.90;78.80;;;;;;5031749;28;20403;-73
2021/12/11 07:34:00;;;;;;;121.90;45.08;;;3.70;79.50;;;;;;5031607;28;20403;-72
2021/12/11 07:36:27;;;;;;;119.05;45.40;;;3.80;80.50;;;;;;5023026;28;20393;-72
2021/12/11 07:38:53;;;;;;;120.88;44.40;;;3.80;80.10;;;;;;5017128;28;20729;-73
2021/12/11 07:41:22;;;;;;;121.65;45.45;;;3.70;80.80;;;;;;5025475;28;20399;-75
2021/12/11 07:43:49;;;;;;;106.07;42.40;;;3.70;81.00;;;;;;5030643;28;20923;-73
2021/12/11 07:46:19;;;;;;;122.78;45.38;;;3.80;81.30;;;;;;5028691;28;20482;-73
2021/12/11 07:48:45;;;;;;;111.70;44.83;;;3.90;80.60;;;;;;5021808;28;20762;-74
2021/12/11 07:51:12;;;;;;;119.32;44.13;;;3.90;78.40;;;;;;5031856;28;20706;-72
2021/12/11 07:53:38;;;;;;;119.47;45.50;;;3.90;79.10;;;;;;5030945;28;20448;-73
2021/12/11 07:56:04;;;;;;;104.38;42.85;;;3.90;79.70;;;;;;5030332;28;20395;-74
2021/12/11 07:58:32;;;;;;;108.22;45.33;;;3.90;80.20;;;;;;5023839;28;20893;-74
2021/12/11 08:00:59;;;;;;;115.88;44.97;;;4.00;80.20;;;;;;5024747;28;20399;-74
2021/12/11 08:03:25;;;;;;;113.63;43.87;;;4.20;78.00;;;;;;5029467;28;20869;-74
2021/12/11 08:05:53;;;;;;;110.72;43.83;;;4.10;78.00;;;;;;5031411;28;20732;-73
2021/12/11 08:08:20;;;;;;;112.07;43.13;;;4.10;78.40;;;;;;5030158;28;20463;-73
2021/12/11 08:10:50;;;;;;;106.63;43.25;;;4.30;76.00;;;;;;5022628;28;20409;-75
2021/12/11 08:13:16;;;;;;;105.38;41.95;;;4.20;75.40;;;;;;5042491;28;20407;-74
2021/12/11 08:15:43;;;;;;;112.20;42.10;;;4.10;75.90;;;;;;5018647;28;20586;-74
2021/12/11 08:18:11;;;;;;;111.47;43.20;;;4.20;76.20;;;;;;5031504;28;20770;-74
2021/12/11 08:20:39;;;;;;;92.25;39.35;;;4.10;76.20;;;;;;5026501;28;20410;-75
2021/12/11 08:23:05;;;;;;;96.60;38.90;;;4.30;75.80;;;;;;5039624;28;20395;-73
2021/12/11 08:25:33;;;;;;;107.85;40.42;;;4.30;74.90;;;;;;5039143;28;20577;-75
2021/12/11 08:27:59;;;;;;;104.15;40.13;;;4.30;73.40;;;;;;5016721;28;20897;-75
2021/12/11 08:30:28;;;;;;;94.15;40.08;;;4.20;74.00;;;;;;5029491;28;20557;-75
2021/12/11 08:32:55;;;;;;;98.50;41.20;;;4.30;75.20;;;;;;5029404;28;20636;-74
2021/12/11 08:35:21;;;;;;;101.30;39.45;;;4.30;75.50;;;;;;5031222;28;20391;-76
2021/12/11 08:37:49;;;;;;;98.18;39.47;;;4.30;75.90;;;;;;5023674;28;20786;-76
2021/12/11 08:40:20;;;;;;;98.75;39.90;;;4.40;73.00;;;;;;5025244;28;20407;-76
2021/12/11 08:42:47;;;;;;;94.43;39.72;;;4.30;74.20;;;;;;5030808;28;20404;-76
2021/12/11 08:45:21;;;;;;;102.95;41.13;;;4.40;75.80;;;;;;5028385;28;20395;-74
2021/12/11 08:47:49;;;;;;;102.88;42.60;;;4.30;78.30;;;;;;5015966;28;20405;-74
2021/12/11 08:50:18;;;;;;;105.20;41.83;;;4.30;79.70;;;;;;5026475;28;20507;-80
2021/12/11 08:52:50;;;;;;;100.63;41.53;;;4.30;81.50;;;;;;5030762;28;20939;-75
2021/12/11 08:55:23;;;;;;;111.00;42.50;;;4.40;80.30;;;;;;5022067;28;20729;-76
2021/12/11 08:57:50;;;;;;;105.65;42.20;;;4.30;82.00;;;;;;5015220;28;20388;-78
2021/12/11 09:00:29;;;;;;;107.53;41.90;;;4.30;82.10;;;;;;5032574;28;20405;-75
2021/12/11 09:03:06;;;;;;;106.40;44.03;;;4.20;83.70;;;;;;5031486;28;20387;-73
2021/12/11 09:05:38;;;;;;;108.13;41.65;;;4.30;84.10;;;;;;5031339;28;20390;-73
2021/12/11 09:08:12;;;;;;;99.20;40.63;;;4.30;85.40;;;;;;5030222;28;20402;-73
2021/12/11 09:10:49;;;;;;;110.73;42.83;;;4.30;83.70;;;;;;5030641;28;20418;-72
2021/12/11 09:13:39;;;;;;;108.97;42.88;;;4.20;87.70;;;;;;5031099;28;20865;-78
2021/12/11 09:16:15;;;;;;;113.78;43.80;;;4.20;89.30;;;;;;5021449;28;20385;-74
2021/12/11 09:18:49;;;;;;;117.55;44.45;;;4.30;91.00;;;;;;5016517;28;20393;-73
2021/12/11 09:21:34;;;;;;;116.45;44.22;;;4.40;89.00;;;;;;5031103;28;20448;-73
2021/12/11 09:24:11;;;;;;;119.70;44.05;;;4.40;91.90;;;;;;5040772;28;20403;-72
2021/12/11 09:26:50;;;;;;;120.77;45.40;;;4.50;89.40;;;;;;5032659;28;20864;-72
2021/12/11 09:29:18;;;;;;;125.82;46.65;;;4.40;91.10;;;;;;5029945;28;20415;-72
2021/12/11 09:32:04;;;;;;;120.30;45.67;;;4.20;95.40;;;;;;5029884;28;20379;-73
2021/12/11 09:34:41;;;;;;;121.72;45.58;;;4.30;94.10;;;;;;5033682;28;20401;-73
2021/12/11 09:37:08;;;;;;;113.15;45.75;;;4.40;94.60;;;;;;5033394;28;20486;-73
2021/12/11 09:39:50;;;;;;;116.15;44.47;;;4.40;93.90;;;;;;5033877;28;20399;-73
2021/12/11 09:42:16;;;;;;;126.68;46.88;;;4.40;93.60;;;;;;5034273;28;20768;-72
2021/12/11 09:44:55;;;;;;;118.30;44.93;;;4.30;96.00;;;;;;5033516;28;20395;-73
2021/12/11 09:47:29;;;;;;;123.68;46.15;;;4.30;97.60;;;;;;5023979;28;20898;-74
2021/12/11 09:50:01;;;;;;;127.25;45.38;;;4.50;96.30;;;;;;5034757;28;20414;-74
2021/12/11 09:52:28;;;;;;;125.27;46.20;;;4.50;94.80;;;;;;5025494;28;20391;-73
2021/12/11 09:55:06;;;;;;;113.95;44.63;;;4.40;93.90;;;;;;5023091;28;20903;-72
2021/12/11 09:57:36;;;;;;;128.38;46.85;;;4.40;93.50;;;;;;5033057;28;20742;-72
2021/12/11 10:00:11;;;;;;;118.93;45.60;;;4.30;94.80;;;;;;5033848;28;20939;-73
2021/12/11 10:02:38;;;;;;;114.40;42.85;;;4.40;96.20;;;;;;5033978;28;20401;-73
2021/12/11 10:05:19;;;;;;;120.72;45.80;;;4.40;94.60;;;;;;5033936;28;20744;-74
2021/12/11 10:08:01;;;;;;;118.80;45.53;;;4.30;95.90;;;;;;5033936;28;20403;-73
2021/12/11 10:10:28;;;;;;;116.30;46.90;;;4.30;97.70;;;;;;5032713;28;20415;-74
2021/12/11 10:12:57;;;;;;;124.15;45.88;;;4.30;99.30;;;;;;5033428;28;20387;-73
2021/12/11 10:15:30;;;;;;;118.32;47.58;;;4.40;99.90;;;;;;5033708;28;20410;-73
2021/12/11 10:18:06;;;;;;;121.78;46.00;;;4.40;96.80;;;;;;5033193;28;20402;-73
2021/12/11 10:20:47;;;;;;;117.15;44.45;;;4.50;99.20;;;;;;5033674;28;20752;-73
2021/12/11 10:23:17;;;;;;;110.32;45.70;;;4.60;96.10;;;;;;5031099;28;20461;-73
2021/12/11 10:25:45;;;;;;;115.25;46.15;;;4.60;93.70;;;;;;5033087;28;20869;-73
2021/12/11 10:28:14;;;;;;;112.50;44.25;;;4.40;96.10;;;;;;5032703;28;20403;-73
2021/12/11 10:30:44;;;;;;;110.35;44.67;;;4.50;99.90;;;;;;5033180;28;20406;-75
2021/12/11 10:33:13;;;;;;;114.85;45.20;;;4.60;99.30;;;;;;5031674;28;20406;-73
2021/12/11 10:35:42;;;;;;;122.78;46.83;;;4.50;98.70;;;;;;5033443;28;20440;-75
2021/12/11 10:38:09;;;;;;;124.32;48.35;;;4.30;99.90;;;;;;5032355;28;20891;-73
2021/12/11 10:40:46;;;;;;;121.57;48.88;;;4.40;99.90;;;;;;5033039;28;20398;-73
2021/12/11 10:43:23;;;;;;;122.68;46.80;;;4.50;99.90;;;;;;5033044;28;20425;-74
2021/12/11 10:45:51;;;;;;;111.28;44.42;;;4.60;99.30;;;;;;5028434;28;20432;-73
2021/12/11 10:48:23;;;;;;;116.28;45.42;;;4.80;99.20;;;;;;5032540;28;20954;-73
2021/12/11 10:50:54;;;;;;;114.25;45.42;;;4.90;93.00;;;;;;5031761;28;20896;-73
2021/12/11 10:53:22;;;;;;;115.60;46.05;;;4.90;92.80;;;;;;5031889;28;20427;-72
2021/12/11 10:55:50;;;;;;;112.35;46.60;;;4.80;92.40;;;;;;5032997;28;20384;-74
2021/12/11 10:58:23;;;;;;;121.93;47.03;;;4.70;95.80;;;;;;5032804;28;20402;-73
2021/12/11 11:00:55;;;;;;;127.45;48.10;;;4.70;98.10;;;;;;5033059;28;20948;-73
2021/12/11 11:03:21;;;;;;;115.70;45.72;;;4.80;98.50;;;;;;5033498;28;20395;-74
2021/12/11 11:05:48;;;;;;;121.65;45.45;;;4.80;98.20;;;;;;5015646;28;20393;-74
2021/12/11 11:08:13;;;;;;;109.25;43.72;;;4.70;98.00;;;;;;5036951;28;20597;-74
2021/12/11 11:10:48;;;;;;;120.78;45.00;;;4.80;99.30;;;;;;5035626;28;20406;-74
2021/12/11 11:13:15;;;;;;;115.63;45.58;;;4.70;99.30;;;;;;5034625;28;20399;-74
2021/12/11 11:15:42;;;;;;;108.88;44.95;;;5.00;95.70;;;;;;5029231;28;20953;-75
2021/12/11 11:18:11;;;;;;;109.18;43.33;;;4.90;97.20;;;;;;5020940;28;20395;-75
2021/12/11 11:20:41;;;;;;;108.05;44.20;;;5.10;96.80;;;;;;5035811;28;20455;-76
2021/12/11 11:23:08;;;;;;;110.25;43.45;;;4.90;96.90;;;;;;5031418;28;20403;-73
2021/12/11 11:25:40;;;;;;;105.75;42.40;;;5.20;92.60;;;;;;5031148;28;20456;-72
2021/12/11 11:28:09;;;;;;;102.50;42.80;;;5.30;92.10;;;;;;5029483;28;20418;-74
2021/12/11 11:30:39;;;;;;;104.93;42.78;;;5.30;92.20;;;;;;5033192;28;20450;-72
2021/12/11 11:33:08;;;;;;;117.70;45.00;;;5.30;90.40;;;;;;5021214;28;20822;-71
2021/12/11 11:35:42;;;;;;;108.75;43.30;;;5.30;93.40;;;;;;5031626;28;20872;-72
2021/12/11 11:38:11;;;;;;;115.70;44.35;;;5.20;93.10;;;;;;5032115;28;20405;-74
2021/12/11 11:40:37;;;;;;;109.68;43.17;;;5.20;96.30;;;;;;5032254;28;20410;-72
2021/12/11 11:43:05;;;;;;;115.20;43.37;;;5.10;98.40;;;;;;5029817;28;20780;-75
2021/12/11 11:45:32;;;;;;;101.53;42.08;;;5.20;99.90;;;;;;5028303;28;20410;-75
2021/12/11 11:47:58;;;;;;;118.03;43.97;;;5.30;97.10;;;;;;5022508;28;20430;-74
2021/12/11 11:50:28;;;;;;;108.38;42.53;;;5.00;99.90;;;;;;5016516;28;20888;-75
2021/12/11 11:52:54;;;;;;;113.65;44.08;;;5.20;99.90;;;;;;5028573;28;20399;-75
2021/12/11 11:55:25;;;;;;;110.13;42.78;;;5.20;99.90;;;;;;5031176;28;20427;-74
2021/12/11 11:57:53;;;;;;;111.03;43.17;;;5.10;99.90;;;;;;5029495;28;20405;-75
2021/12/11 12:00:24;;;;;;;111.70;43.15;;;5.30;99.90;;;;;;5031834;28;20403;-75
2021/12/11 12:02:51;;;;;;;117.38;44.70;;;5.20;99.90;;;;;;5031550;28;20522;-76
2021/12/11 12:05:19;;;;;;;107.57;40.75;;;5.30;99.90;;;;;;5030856;28;20406;-76
2021/12/11 12:07:46;;;;;;;106.80;43.17;;;5.30;99.90;;;;;;5030715;28;20399;-74
2021/12/11 12:10:15;;;;;;;107.07;42.15;;;5.40;99.90;;;;;;5030945;28;20899;-75
2021/12/11 12:12:41;;;;;;;113.97;42.05;;;5.50;99.90;;;;;;5030782;28;20399;-76
2021/12/11 12:15:11;;;;;;;99.32;40.13;;;5.60;99.90;;;;;;5036280;28;20379;-75
2021/12/11 12:17:37;;;;;;;86.35;38.13;;;5.80;99.90;;;;;;5031031;28;20868;-75
2021/12/11 12:20:07;;;;;;;97.57;38.55;;;5.90;99.90;;;;;;5032781;28;20475;-76
2021/12/11 12:22:33;;;;;;;97.95;39.22;;;5.80;99.90;;;;;;5031146;28;20407;-74
2021/12/11 12:24:59;;;;;;;100.80;37.87;;;5.70;99.90;;;;;;5030840;28;20791;-72
2021/12/11 12:27:29;;;;;;;90.13;36.75;;;5.90;99.90;;;;;;5030765;28;20391;-74
2021/12/11 12:29:56;;;;;;;86.80;35.65;;;5.90;99.90;;;;;;5031737;28;20407;-73
2021/12/11 12:32:29;;;;;;;83.07;35.73;;;5.90;99.90;;;;;;5031085;28;20382;-72
2021/12/11 12:35:04;;;;;;;77.37;32.60;;;5.90;99.90;;;;;;5011377;28;20404;-74
2021/12/11 12:37:30;;;;;;;68.78;28.10;;;6.10;98.90;;;;;;5023199;28;20430;-75
2021/12/11 12:39:58;;;;;;;63.00;27.23;;;6.60;87.60;;;;;;5030265;28;20556;-74
2021/12/11 12:42:35;;;;;;;44.85;20.80;;;6.60;84.60;;;;;;5030533;28;20773;-74
2021/12/11 12:45:25;;;;;;;41.13;19.90;;;6.80;77.80;;;;;;5030052;28;20753;-74
2021/12/11 12:47:59;;;;;;;45.38;20.27;;;6.80;79.30;;;;;;5025818;28;20415;-74
2021/12/11 12:50:32;;;;;;;37.97;19.13;;;7.00;74.10;;;;;;5020625;28;20413;-74
2021/12/11 12:52:57;;;;;;;35.10;17.80;;;7.10;73.40;;;;;;5030110;28;20405;-73
2021/12/11 12:55:29;;;;;;;27.60;14.15;;;6.90;72.90;;;;;;5030446;28;20386;-73
2021/12/11 12:57:59;;;;;;;36.17;17.13;;;6.80;75.90;;;;;;5025864;28;20508;-76
2021/12/11 13:00:39;;;;;;;37.85;19.40;;;6.70;79.40;;;;;;5041163;28;20466;-75
2021/12/11 13:03:11;;;;;;;35.80;18.48;;;6.60;79.00;;;;;;5048034;28;20395;-76
2021/12/11 13:05:40;;;;;;;41.88;22.17;;;6.60;81.00;;;;;;5031718;28;20403;-74